sensor_id;sensor_type;location;lat;lon;timestamp;P1;durP1;ratioP1;P2;durP2;ratioP2
63012;SDS011;62113;45.624;11.700;2023-03-23T00:00:59;35.38;;;23.60;;
63012;SDS011;62113;45.624;11.700;2023-03-23T00:03:26;31.95;;;23.30;;
63012;SDS011;62113;45.624;11.700;2023-03-23T00:05:53;36.05;;;23.38;;
63012;SDS011;62113;45.624;11.700;2023-03-23T00:08:27;32.13;;;22.13;;
63012;SDS011;62113;45.624;11.700;2023-03-23T00:10:53;39.25;;;22.33;;
63012;SDS011;62113;45.624;11.700;2023-03-23T00:13:24;31.55;;;22.45;;
63012;SDS011;62113;45.624;11.700;2023-03-23T00:15:50;31.20;;;22.35;;
63012;SDS011;62113;45.624;11.700;2023-03-23T00:18:17;30.70;;;21.67;;
63012;SDS011;62113;45.624;11.700;2023-03-23T00:20:46;34.92;;;21.85;;
63012;SDS011;62113;45.624;11.700;2023-03-23T00:23:14;36.60;;;22.75;;
63012;SDS011;62113;45.624;11.700;2023-03-23T00:25:44;29.92;;;21.52;;
63012;SDS011;62113;45.624;11.700;2023-03-23T00:28:11;35.85;;;23.25;;
63012;SDS011;62113;45.624;11.700;2023-03-23T00:30:37;36.33;;;23.10;;
63012;SDS011;62113;45.624;11.700;2023-03-23T00:33:04;34.95;;;21.05;;
63012;SDS011;62113;45.624;11.700;2023-03-23T00:35:30;36.20;;;22.33;;
63012;SDS011;62113;45.624;11.700;2023-03-23T00:37:56;38.13;;;22.60;;
63012;SDS011;62113;45.624;11.700;2023-03-23T00:40:23;32.13;;;22.05;;
63012;SDS011;62113;45.624;11.700;2023-03-23T00:42:49;30.60;;;21.40;;
63012;SDS011;62113;45.624;11.700;2023-03-23T00:45:15;38.22;;;24.52;;
63012;SDS011;62113;45.624;11.700;2023-03-23T00:47:41;34.80;;;22.65;;
63012;SDS011;62113;45.624;11.700;2023-03-23T00:50:11;33.28;;;22.38;;
63012;SDS011;62113;45.624;11.700;2023-03-23T00:52:39;36.70;;;23.30;;
63012;SDS011;62113;45.624;11.700;2023-03-23T00:55:05;32.53;;;20.58;;
63012;SDS011;62113;45.624;11.700;2023-03-23T00:57:32;30.85;;;22.25;;
63012;SDS011;62113;45.624;11.700;2023-03-23T00:59:57;45.20;;;24.83;;
63012;SDS011;62113;45.624;11.700;2023-03-23T01:02:23;33.20;;;23.63;;
63012;SDS011;62113;45.624;11.700;2023-03-23T01:04:51;33.22;;;23.15;;
63012;SDS011;62113;45.624;11.700;2023-03-23T01:07:20;32.05;;;22.63;;
63012;SDS011;62113;45.624;11.700;2023-03-23T01:09:48;33.30;;;23.05;;
63012;SDS011;62113;45.624;11.700;2023-03-23T01:12:14;34.13;;;21.70;;
63012;SDS011;62113;45.624;11.700;2023-03-23T01:14:40;34.78;;;23.27;;
63012;SDS011;62113;45.624;11.700;2023-03-23T01:17:06;37.75;;;22.23;;
63012;SDS011;62113;45.624;11.700;2023-03-23T01:19:32;31.97;;;22.83;;
63012;SDS011;62113;45.624;11.700;2023-03-23T01:21:58;31.52;;;22.60;;
63012;SDS011;62113;45.624;11.700;2023-03-23T01:24:23;29.88;;;21.25;;
63012;SDS011;62113;45.624;11.700;2023-03-23T01:26:49;31.30;;;22.37;;
63012;SDS011;62113;45.624;11.700;2023-03-23T01:29:15;36.13;;;22.33;;
63012;SDS011;62113;45.624;11.700;2023-03-23T01:31:40;37.50;;;22.48;;
63012;SDS011;62113;45.624;11.700;2023-03-23T01:34:07;35.33;;;21.48;;
63012;SDS011;62113;45.624;11.700;2023-03-23T01:36:34;36.35;;;22.45;;
63012;SDS011;62113;45.624;11.700;2023-03-23T01:39:00;31.93;;;21.27;;
63012;SDS011;62113;45.624;11.700;2023-03-23T01:41:28;28.55;;;21.33;;
63012;SDS011;62113;45.624;11.700;2023-03-23T01:44:03;33.38;;;21.38;;
63012;SDS011;62113;45.624;11.700;2023-03-23T01:46:41;29.80;;;20.93;;
63012;SDS011;62113;45.624;11.700;2023-03-23T01:49:26;29.95;;;20.25;;
63012;SDS011;62113;45.624;11.700;2023-03-23T01:52:05;31.88;;;20.08;;
63012;SDS011;62113;45.624;11.700;2023-03-23T01:54:34;32.05;;;20.95;;
63012;SDS011;62113;45.624;11.700;2023-03-23T01:57:10;29.58;;;21.40;;
63012;SDS011;62113;45.624;11.700;2023-03-23T01:59:39;30.52;;;21.17;;
63012;SDS011;62113;45.624;11.700;2023-03-23T02:02:07;33.38;;;22.38;;
63012;SDS011;62113;45.624;11.700;2023-03-23T02:04:35;26.73;;;20.15;;
63012;SDS011;62113;45.624;11.700;2023-03-23T02:07:02;32.17;;;21.10;;
63012;SDS011;62113;45.624;11.700;2023-03-23T02:09:29;32.97;;;21.20;;
63012;SDS011;62113;45.624;11.700;2023-03-23T02:11:55;36.47;;;20.95;;
63012;SDS011;62113;45.624;11.700;2023-03-23T02:14:22;28.65;;;20.63;;
63012;SDS011;62113;45.624;11.700;2023-03-23T02:17:08;30.92;;;20.75;;
63012;SDS011;62113;45.624;11.700;2023-03-23T02:22:31;27.55;;;20.60;;
63012;SDS011;62113;45.624;11.700;2023-03-23T02:41:28;32.65;;;21.70;;
63012;SDS011;62113;45.624;11.700;2023-03-23T02:43:56;29.83;;;20.88;;
63012;SDS011;62113;45.624;11.700;2023-03-23T02:46:23;35.40;;;20.25;;
63012;SDS011;62113;45.624;11.700;2023-03-23T02:51:18;25.23;;;17.73;;
63012;SDS011;62113;45.624;11.700;2023-03-23T02:53:45;31.38;;;19.55;;
63012;SDS011;62113;45.624;11.700;2023-03-23T02:56:14;31.90;;;20.42;;
63012;SDS011;62113;45.624;11.700;2023-03-23T02:58:41;33.22;;;20.23;;
63012;SDS011;62113;45.624;11.700;2023-03-23T03:03:59;31.58;;;20.67;;
63012;SDS011;62113;45.624;11.700;2023-03-23T03:09:05;31.40;;;19.52;;
63012;SDS011;62113;45.624;11.700;2023-03-23T03:11:39;32.60;;;21.73;;
63012;SDS011;62113;45.624;11.700;2023-03-23T03:14:13;29.98;;;20.60;;
63012;SDS011;62113;45.624;11.700;2023-03-23T03:19:26;30.05;;;19.77;;
63012;SDS011;62113;45.624;11.700;2023-03-23T03:21:58;28.77;;;19.33;;
63012;SDS011;62113;45.624;11.700;2023-03-23T03:24:25;32.67;;;20.40;;
63012;SDS011;62113;45.624;11.700;2023-03-23T03:26:53;34.15;;;20.95;;
63012;SDS011;62113;45.624;11.700;2023-03-23T03:29:23;31.60;;;20.45;;
63012;SDS011;62113;45.624;11.700;2023-03-23T03:31:55;29.83;;;19.73;;
63012;SDS011;62113;45.624;11.700;2023-03-23T03:34:23;34.17;;;20.05;;
63012;SDS011;62113;45.624;11.700;2023-03-23T03:36:49;34.63;;;20.52;;
63012;SDS011;62113;45.624;11.700;2023-03-23T03:39:18;27.90;;;18.85;;
63012;SDS011;62113;45.624;11.700;2023-03-23T03:41:46;31.27;;;19.50;;
63012;SDS011;62113;45.624;11.700;2023-03-23T03:44:12;32.67;;;20.30;;
63012;SDS011;62113;45.624;11.700;2023-03-23T03:46:38;42.78;;;19.50;;
63012;SDS011;62113;45.624;11.700;2023-03-23T03:49:05;31.40;;;19.90;;
63012;SDS011;62113;45.624;11.700;2023-03-23T03:51:32;28.67;;;19.05;;
63012;SDS011;62113;45.624;11.700;2023-03-23T03:53:59;30.02;;;19.85;;
63012;SDS011;62113;45.624;11.700;2023-03-23T03:56:25;28.00;;;19.45;;
63012;SDS011;62113;45.624;11.700;2023-03-23T03:58:52;33.10;;;20.83;;
63012;SDS011;62113;45.624;11.700;2023-03-23T04:01:18;31.50;;;20.67;;
63012;SDS011;62113;45.624;11.700;2023-03-23T04:03:49;31.08;;;20.17;;
63012;SDS011;62113;45.624;11.700;2023-03-23T04:06:15;30.88;;;19.90;;
63012;SDS011;62113;45.624;11.700;2023-03-23T04:08:42;28.05;;;19.20;;
63012;SDS011;62113;45.624;11.700;2023-03-23T04:11:09;29.08;;;20.42;;
63012;SDS011;62113;45.624;11.700;2023-03-23T04:13:37;32.08;;;19.67;;
63012;SDS011;62113;45.624;11.700;2023-03-23T04:16:03;32.88;;;20.40;;
63012;SDS011;62113;45.624;11.700;2023-03-23T04:18:30;30.77;;;19.90;;
63012;SDS011;62113;45.624;11.700;2023-03-23T04:20:57;32.10;;;19.70;;
63012;SDS011;62113;45.624;11.700;2023-03-23T04:23:24;36.58;;;19.75;;
63012;SDS011;62113;45.624;11.700;2023-03-23T04:28:18;33.40;;;19.33;;
63012;SDS011;62113;45.624;11.700;2023-03-23T04:30:48;27.75;;;19.33;;
63012;SDS011;62113;45.624;11.700;2023-03-23T04:33:18;25.98;;;18.63;;
63012;SDS011;62113;45.624;11.700;2023-03-23T04:35:44;30.52;;;18.95;;
63012;SDS011;62113;45.624;11.700;2023-03-23T04:38:13;25.27;;;18.15;;
63012;SDS011;62113;45.624;11.700;2023-03-23T04:40:40;27.92;;;18.70;;
63012;SDS011;62113;45.624;11.700;2023-03-23T04:43:08;30.02;;;17.92;;
63012;SDS011;62113;45.624;11.700;2023-03-23T04:45:34;34.22;;;19.13;;
63012;SDS011;62113;45.624;11.700;2023-03-23T04:48:02;32.58;;;19.30;;
63012;SDS011;62113;45.624;11.700;2023-03-23T04:50:30;27.48;;;18.85;;
63012;SDS011;62113;45.624;11.700;2023-03-23T04:52:58;31.38;;;20.33;;
63012;SDS011;62113;45.624;11.700;2023-03-23T04:55:28;28.27;;;19.33;;
63012;SDS011;62113;45.624;11.700;2023-03-23T04:57:55;33.72;;;20.25;;
63012;SDS011;62113;45.624;11.700;2023-03-23T05:00:25;28.83;;;19.10;;
63012;SDS011;62113;45.624;11.700;2023-03-23T05:02:50;26.73;;;17.95;;
63012;SDS011;62113;45.624;11.700;2023-03-23T05:05:17;33.58;;;18.35;;
63012;SDS011;62113;45.624;11.700;2023-03-23T05:07:43;28.15;;;18.35;;
63012;SDS011;62113;45.624;11.700;2023-03-23T05:10:10;30.80;;;19.23;;
63012;SDS011;62113;45.624;11.700;2023-03-23T05:12:37;29.23;;;18.50;;
63012;SDS011;62113;45.624;11.700;2023-03-23T05:15:03;26.02;;;17.88;;
63012;SDS011;62113;45.624;11.700;2023-03-23T05:17:31;31.08;;;20.25;;
63012;SDS011;62113;45.624;11.700;2023-03-23T05:19:58;29.15;;;19.50;;
63012;SDS011;62113;45.624;11.700;2023-03-23T05:22:26;36.10;;;22.03;;
63012;SDS011;62113;45.624;11.700;2023-03-23T05:24:52;30.38;;;20.42;;
63012;SDS011;62113;45.624;11.700;2023-03-23T05:27:19;32.40;;;22.20;;
63012;SDS011;62113;45.624;11.700;2023-03-23T05:29:45;33.22;;;21.27;;
63012;SDS011;62113;45.624;11.700;2023-03-23T05:32:13;35.38;;;21.33;;
63012;SDS011;62113;45.624;11.700;2023-03-23T05:34:40;36.70;;;21.27;;
63012;SDS011;62113;45.624;11.700;2023-03-23T05:37:08;29.23;;;20.80;;
63012;SDS011;62113;45.624;11.700;2023-03-23T05:39:34;35.22;;;21.08;;
63012;SDS011;62113;45.624;11.700;2023-03-23T05:42:01;32.70;;;19.23;;
63012;SDS011;62113;45.624;11.700;2023-03-23T05:44:28;31.40;;;18.90;;
63012;SDS011;62113;45.624;11.700;2023-03-23T05:46:54;35.55;;;19.27;;
63012;SDS011;62113;45.624;11.700;2023-03-23T05:49:19;31.05;;;18.00;;
63012;SDS011;62113;45.624;11.700;2023-03-23T05:51:45;29.95;;;19.45;;
63012;SDS011;62113;45.624;11.700;2023-03-23T05:54:12;34.73;;;20.20;;
63012;SDS011;62113;45.624;11.700;2023-03-23T05:56:39;29.27;;;18.25;;
63012;SDS011;62113;45.624;11.700;2023-03-23T05:59:05;30.40;;;18.85;;
63012;SDS011;62113;45.624;11.700;2023-03-23T06:01:30;27.95;;;17.88;;
63012;SDS011;62113;45.624;11.700;2023-03-23T06:03:57;30.27;;;19.17;;
63012;SDS011;62113;45.624;11.700;2023-03-23T06:06:24;37.10;;;21.90;;
63012;SDS011;62113;45.624;11.700;2023-03-23T06:08:54;34.30;;;20.75;;
63012;SDS011;62113;45.624;11.700;2023-03-23T06:11:21;27.52;;;19.33;;
63012;SDS011;62113;45.624;11.700;2023-03-23T06:13:48;27.40;;;20.80;;
63012;SDS011;62113;45.624;11.700;2023-03-23T06:16:13;35.88;;;18.00;;
63012;SDS011;62113;45.624;11.700;2023-03-23T06:18:39;27.17;;;19.90;;
63012;SDS011;62113;45.624;11.700;2023-03-23T06:21:06;31.70;;;19.17;;
63012;SDS011;62113;45.624;11.700;2023-03-23T06:23:33;30.05;;;20.35;;
63012;SDS011;62113;45.624;11.700;2023-03-23T06:26:00;25.55;;;18.30;;
63012;SDS011;62113;45.624;11.700;2023-03-23T06:28:28;35.55;;;19.20;;
63012;SDS011;62113;45.624;11.700;2023-03-23T06:30:54;31.47;;;20.07;;
63012;SDS011;62113;45.624;11.700;2023-03-23T06:33:20;37.00;;;19.40;;
63012;SDS011;62113;45.624;11.700;2023-03-23T06:35:47;29.35;;;20.02;;
63012;SDS011;62113;45.624;11.700;2023-03-23T06:40:39;34.17;;;19.30;;
63012;SDS011;62113;45.624;11.700;2023-03-23T06:43:06;31.00;;;20.17;;
63012;SDS011;62113;45.624;11.700;2023-03-23T06:45:31;26.80;;;19.53;;
63012;SDS011;62113;45.624;11.700;2023-03-23T06:47:57;32.67;;;21.03;;
63012;SDS011;62113;45.624;11.700;2023-03-23T06:50:23;30.00;;;20.38;;
63012;SDS011;62113;45.624;11.700;2023-03-23T06:52:50;37.37;;;21.33;;
63012;SDS011;62113;45.624;11.700;2023-03-23T06:55:16;36.33;;;21.13;;
63012;SDS011;62113;45.624;11.700;2023-03-23T06:57:43;32.25;;;20.60;;
63012;SDS011;62113;45.624;11.700;2023-03-23T07:02:37;32.70;;;21.38;;
63012;SDS011;62113;45.624;11.700;2023-03-23T07:05:04;36.03;;;21.98;;
63012;SDS011;62113;45.624;11.700;2023-03-23T07:07:30;35.10;;;23.45;;
63012;SDS011;62113;45.624;11.700;2023-03-23T07:09:56;35.20;;;22.63;;
63012;SDS011;62113;45.624;11.700;2023-03-23T07:12:22;38.00;;;22.80;;
63012;SDS011;62113;45.624;11.700;2023-03-23T07:14:47;37.97;;;23.00;;
63012;SDS011;62113;45.624;11.700;2023-03-23T07:17:13;35.27;;;23.03;;
63012;SDS011;62113;45.624;11.700;2023-03-23T07:19:39;36.83;;;23.20;;
63012;SDS011;62113;45.624;11.700;2023-03-23T07:22:07;39.15;;;21.83;;
63012;SDS011;62113;45.624;11.700;2023-03-23T07:24:33;38.25;;;21.50;;
63012;SDS011;62113;45.624;11.700;2023-03-23T07:26:59;35.78;;;21.20;;
63012;SDS011;62113;45.624;11.700;2023-03-23T07:29:25;32.10;;;20.10;;
63012;SDS011;62113;45.624;11.700;2023-03-23T07:31:51;33.03;;;22.15;;
63012;SDS011;62113;45.624;11.700;2023-03-23T07:34:18;31.40;;;22.95;;
63012;SDS011;62113;45.624;11.700;2023-03-23T07:36:44;34.30;;;22.65;;
63012;SDS011;62113;45.624;11.700;2023-03-23T07:39:10;33.72;;;22.75;;
63012;SDS011;62113;45.624;11.700;2023-03-23T07:41:37;37.97;;;25.00;;
63012;SDS011;62113;45.624;11.700;2023-03-23T07:44:03;35.42;;;23.63;;
63012;SDS011;62113;45.624;11.700;2023-03-23T07:46:29;41.17;;;25.60;;
63012;SDS011;62113;45.624;11.700;2023-03-23T07:48:55;44.93;;;26.30;;
63012;SDS011;62113;45.624;11.700;2023-03-23T07:51:21;34.95;;;23.95;;
63012;SDS011;62113;45.624;11.700;2023-03-23T07:53:47;36.15;;;24.40;;
63012;SDS011;62113;45.624;11.700;2023-03-23T07:56:15;37.78;;;27.08;;
63012;SDS011;62113;45.624;11.700;2023-03-23T07:58:44;36.15;;;25.58;;
63012;SDS011;62113;45.624;11.700;2023-03-23T08:01:12;39.20;;;27.08;;
63012;SDS011;62113;45.624;11.700;2023-03-23T08:03:38;38.90;;;25.30;;
63012;SDS011;62113;45.624;11.700;2023-03-23T08:06:04;53.47;;;26.40;;
63012;SDS011;62113;45.624;11.700;2023-03-23T08:08:30;43.53;;;27.40;;
63012;SDS011;62113;45.624;11.700;2023-03-23T08:10:56;40.60;;;28.27;;
63012;SDS011;62113;45.624;11.700;2023-03-23T08:13:22;57.05;;;27.73;;
63012;SDS011;62113;45.624;11.700;2023-03-23T08:15:48;34.73;;;25.80;;
63012;SDS011;62113;45.624;11.700;2023-03-23T08:18:14;39.33;;;26.27;;
63012;SDS011;62113;45.624;11.700;2023-03-23T08:20:40;35.00;;;23.73;;
63012;SDS011;62113;45.624;11.700;2023-03-23T08:23:06;33.92;;;24.45;;
63012;SDS011;62113;45.624;11.700;2023-03-23T08:25:32;39.43;;;25.43;;
63012;SDS011;62113;45.624;11.700;2023-03-23T08:27:58;50.75;;;25.33;;
63012;SDS011;62113;45.624;11.700;2023-03-23T08:30:26;42.00;;;25.88;;
63012;SDS011;62113;45.624;11.700;2023-03-23T08:32:55;37.25;;;24.65;;
63012;SDS011;62113;45.624;11.700;2023-03-23T08:35:21;35.17;;;24.70;;
63012;SDS011;62113;45.624;11.700;2023-03-23T08:37:48;41.00;;;25.60;;
63012;SDS011;62113;45.624;11.700;2023-03-23T08:40:16;32.05;;;23.52;;
63012;SDS011;62113;45.624;11.700;2023-03-23T08:42:44;32.90;;;24.02;;
63012;SDS011;62113;45.624;11.700;2023-03-23T08:45:12;38.88;;;24.88;;
63012;SDS011;62113;45.624;11.700;2023-03-23T08:47:40;35.17;;;25.33;;
63012;SDS011;62113;45.624;11.700;2023-03-23T08:52:33;38.83;;;24.15;;
63012;SDS011;62113;45.624;11.700;2023-03-23T08:54:59;37.13;;;24.47;;
63012;SDS011;62113;45.624;11.700;2023-03-23T08:57:25;48.27;;;24.77;;
63012;SDS011;62113;45.624;11.700;2023-03-23T08:59:51;35.25;;;21.60;;
63012;SDS011;62113;45.624;11.700;2023-03-23T09:02:19;34.03;;;22.08;;
63012;SDS011;62113;45.624;11.700;2023-03-23T09:04:45;30.95;;;22.58;;
63012;SDS011;62113;45.624;11.700;2023-03-23T09:07:11;34.83;;;23.60;;
63012;SDS011;62113;45.624;11.700;2023-03-23T09:09:39;32.30;;;23.05;;
63012;SDS011;62113;45.624;11.700;2023-03-23T09:12:05;36.40;;;21.52;;
63012;SDS011;62113;45.624;11.700;2023-03-23T09:14:35;32.50;;;22.05;;
63012;SDS011;62113;45.624;11.700;2023-03-23T09:19:28;35.60;;;22.98;;
63012;SDS011;62113;45.624;11.700;2023-03-23T09:24:20;29.47;;;21.03;;
63012;SDS011;62113;45.624;11.700;2023-03-23T09:26:46;29.33;;;21.43;;
63012;SDS011;62113;45.624;11.700;2023-03-23T09:29:12;37.17;;;21.50;;
63012;SDS011;62113;45.624;11.700;2023-03-23T09:31:38;28.75;;;19.83;;
63012;SDS011;62113;45.624;11.700;2023-03-23T09:34:06;35.15;;;20.75;;
63012;SDS011;62113;45.624;11.700;2023-03-23T09:36:34;31.27;;;20.73;;
63012;SDS011;62113;45.624;11.700;2023-03-23T09:39:04;34.03;;;21.23;;
63012;SDS011;62113;45.624;11.700;2023-03-23T09:41:43;33.25;;;21.02;;
63012;SDS011;62113;45.624;11.700;2023-03-23T09:44:42;26.63;;;19.00;;
63012;SDS011;62113;45.624;11.700;2023-03-23T09:47:46;30.65;;;19.83;;
63012;SDS011;62113;45.624;11.700;2023-03-23T09:50:26;29.85;;;20.33;;
63012;SDS011;62113;45.624;11.700;2023-03-23T09:53:09;27.00;;;19.98;;
63012;SDS011;62113;45.624;11.700;2023-03-23T09:55:51;32.78;;;21.38;;
63012;SDS011;62113;45.624;11.700;2023-03-23T10:00:54;33.65;;;18.67;;
63012;SDS011;62113;45.624;11.700;2023-03-23T10:03:26;28.00;;;18.27;;
63012;SDS011;62113;45.624;11.700;2023-03-23T10:05:58;30.65;;;18.65;;
63012;SDS011;62113;45.624;11.700;2023-03-23T10:08:24;29.07;;;16.13;;
63012;SDS011;62113;45.624;11.700;2023-03-23T10:14:01;20.20;;;15.05;;
63012;SDS011;62113;45.624;11.700;2023-03-23T10:17:14;24.95;;;16.77;;
63012;SDS011;62113;45.624;11.700;2023-03-23T10:21:51;23.50;;;15.70;;
63012;SDS011;62113;45.624;11.700;2023-03-23T10:24:21;17.60;;;11.82;;
63012;SDS011;62113;45.624;11.700;2023-03-23T10:29:51;17.85;;;11.13;;
63012;SDS011;62113;45.624;11.700;2023-03-23T10:32:44;16.60;;;10.98;;
63012;SDS011;62113;45.624;11.700;2023-03-23T10:35:17;15.25;;;11.45;;
63012;SDS011;62113;45.624;11.700;2023-03-23T10:37:52;21.85;;;14.35;;
63012;SDS011;62113;45.624;11.700;2023-03-23T10:40:29;15.32;;;12.18;;
63012;SDS011;62113;45.624;11.700;2023-03-23T10:45:26;17.17;;;12.45;;
63012;SDS011;62113;45.624;11.700;2023-03-23T10:50:45;17.05;;;11.75;;
63012;SDS011;62113;45.624;11.700;2023-03-23T10:53:19;17.92;;;12.38;;
63012;SDS011;62113;45.624;11.700;2023-03-23T10:55:48;20.40;;;13.10;;
63012;SDS011;62113;45.624;11.700;2023-03-23T10:58:27;22.98;;;13.73;;
63012;SDS011;62113;45.624;11.700;2023-03-23T11:00:54;16.58;;;12.45;;
63012;SDS011;62113;45.624;11.700;2023-03-23T11:03:22;19.05;;;12.85;;
63012;SDS011;62113;45.624;11.700;2023-03-23T11:05:58;22.23;;;14.00;;
63012;SDS011;62113;45.624;11.700;2023-03-23T11:08:29;25.25;;;15.75;;
63012;SDS011;62113;45.624;11.700;2023-03-23T11:11:07;20.35;;;14.75;;
63012;SDS011;62113;45.624;11.700;2023-03-23T11:13:37;19.52;;;13.30;;
63012;SDS011;62113;45.624;11.700;2023-03-23T11:16:10;12.80;;;9.40;;
63012;SDS011;62113;45.624;11.700;2023-03-23T11:18:47;9.82;;;8.27;;
63012;SDS011;62113;45.624;11.700;2023-03-23T11:21:13;12.47;;;8.53;;
63012;SDS011;62113;45.624;11.700;2023-03-23T11:23:40;12.30;;;8.95;;
63012;SDS011;62113;45.624;11.700;2023-03-23T11:31:21;11.27;;;8.40;;
63012;SDS011;62113;45.624;11.700;2023-03-23T11:33:53;12.60;;;9.63;;
63012;SDS011;62113;45.624;11.700;2023-03-23T11:36:40;13.55;;;10.90;;
63012;SDS011;62113;45.624;11.700;2023-03-23T11:41:58;13.77;;;10.48;;
63012;SDS011;62113;45.624;11.700;2023-03-23T11:44:32;11.75;;;9.60;;
63012;SDS011;62113;45.624;11.700;2023-03-23T11:47:00;14.15;;;10.38;;
63012;SDS011;62113;45.624;11.700;2023-03-23T11:49:35;22.90;;;11.15;;
63012;SDS011;62113;45.624;11.700;2023-03-23T11:52:23;14.80;;;10.52;;
63012;SDS011;62113;45.624;11.700;2023-03-23T11:58:16;15.77;;;11.82;;
63012;SDS011;62113;45.624;11.700;2023-03-23T12:00:51;17.60;;;11.40;;
63012;SDS011;62113;45.624;11.700;2023-03-23T12:06:20;18.13;;;12.88;;
63012;SDS011;62113;45.624;11.700;2023-03-23T12:12:05;15.27;;;11.10;;
63012;SDS011;62113;45.624;11.700;2023-03-23T12:39:08;25.80;;;17.48;;
63012;SDS011;62113;45.624;11.700;2023-03-23T12:44:53;26.17;;;17.23;;
63012;SDS011;62113;45.624;11.700;2023-03-23T12:47:40;23.90;;;16.70;;
63012;SDS011;62113;45.624;11.700;2023-03-23T12:50:20;25.60;;;18.10;;
63012;SDS011;62113;45.624;11.700;2023-03-23T12:53:06;23.33;;;16.35;;
63012;SDS011;62113;45.624;11.700;2023-03-23T12:55:49;20.77;;;15.65;;
63012;SDS011;62113;45.624;11.700;2023-03-23T12:58:19;27.73;;;17.58;;
63012;SDS011;62113;45.624;11.700;2023-03-23T13:06:26;25.55;;;16.58;;
63012;SDS011;62113;45.624;11.700;2023-03-23T13:11:38;24.70;;;16.88;;
63012;SDS011;62113;45.624;11.700;2023-03-23T13:23:05;23.45;;;17.02;;
63012;SDS011;62113;45.624;11.700;2023-03-23T13:28:26;24.17;;;16.70;;
63012;SDS011;62113;45.624;11.700;2023-03-23T13:33:25;22.90;;;16.42;;
63012;SDS011;62113;45.624;11.700;2023-03-23T13:35:53;26.42;;;19.33;;
63012;SDS011;62113;45.624;11.700;2023-03-23T13:38:21;28.50;;;18.23;;
63012;SDS011;62113;45.624;11.700;2023-03-23T13:40:50;27.80;;;18.70;;
63012;SDS011;62113;45.624;11.700;2023-03-23T13:43:30;25.55;;;17.75;;
63012;SDS011;62113;45.624;11.700;2023-03-23T13:46:23;27.70;;;19.55;;
63012;SDS011;62113;45.624;11.700;2023-03-23T13:49:02;28.50;;;19.20;;
63012;SDS011;62113;45.624;11.700;2023-03-23T13:56:42;26.08;;;19.42;;
63012;SDS011;62113;45.624;11.700;2023-03-23T13:59:28;27.20;;;19.27;;
63012;SDS011;62113;45.624;11.700;2023-03-23T14:01:54;30.88;;;19.58;;
63012;SDS011;62113;45.624;11.700;2023-03-23T14:04:21;27.35;;;19.02;;
63012;SDS011;62113;45.624;11.700;2023-03-23T14:06:56;27.58;;;18.92;;
63012;SDS011;62113;45.624;11.700;2023-03-23T14:11:55;27.33;;;19.90;;
63012;SDS011;62113;45.624;11.700;2023-03-23T14:14:28;29.02;;;19.88;;
63012;SDS011;62113;45.624;11.700;2023-03-23T14:19:40;32.50;;;20.27;;
63012;SDS011;62113;45.624;11.700;2023-03-23T14:22:16;27.13;;;19.20;;
63012;SDS011;62113;45.624;11.700;2023-03-23T14:24:49;31.40;;;20.80;;
63012;SDS011;62113;45.624;11.700;2023-03-23T14:27:20;22.48;;;16.88;;
63012;SDS011;62113;45.624;11.700;2023-03-23T14:29:59;31.98;;;20.08;;
63012;SDS011;62113;45.624;11.700;2023-03-23T14:32:28;25.30;;;17.95;;
63012;SDS011;62113;45.624;11.700;2023-03-23T14:34:56;22.23;;;16.50;;
63012;SDS011;62113;45.624;11.700;2023-03-23T14:37:22;30.15;;;19.58;;
63012;SDS011;62113;45.624;11.700;2023-03-23T14:39:49;23.65;;;19.17;;
63012;SDS011;62113;45.624;11.700;2023-03-23T14:42:18;26.58;;;19.85;;
63012;SDS011;62113;45.624;11.700;2023-03-23T14:44:48;31.90;;;19.63;;
63012;SDS011;62113;45.624;11.700;2023-03-23T14:47:24;27.60;;;19.38;;
63012;SDS011;62113;45.624;11.700;2023-03-23T14:49:57;23.80;;;18.23;;
63012;SDS011;62113;45.624;11.700;2023-03-23T14:52:26;24.80;;;17.33;;
63012;SDS011;62113;45.624;11.700;2023-03-23T14:55:10;32.08;;;20.90;;
63012;SDS011;62113;45.624;11.700;2023-03-23T14:57:40;32.92;;;20.08;;
63012;SDS011;62113;45.624;11.700;2023-03-23T15:00:17;32.13;;;20.90;;
63012;SDS011;62113;45.624;11.700;2023-03-23T15:02:49;29.67;;;20.80;;
63012;SDS011;62113;45.624;11.700;2023-03-23T15:05:19;28.77;;;20.75;;
63012;SDS011;62113;45.624;11.700;2023-03-23T15:07:55;32.25;;;21.25;;
63012;SDS011;62113;45.624;11.700;2023-03-23T15:10:25;30.88;;;21.58;;
63012;SDS011;62113;45.624;11.700;2023-03-23T15:12:51;39.47;;;21.93;;
63012;SDS011;62113;45.624;11.700;2023-03-23T15:15:25;28.75;;;20.85;;
63012;SDS011;62113;45.624;11.700;2023-03-23T15:17:51;35.97;;;21.88;;
63012;SDS011;62113;45.624;11.700;2023-03-23T15:20:20;35.50;;;22.70;;
63012;SDS011;62113;45.624;11.700;2023-03-23T15:22:55;33.80;;;22.75;;
63012;SDS011;62113;45.624;11.700;2023-03-23T15:25:30;37.53;;;21.95;;
63012;SDS011;62113;45.624;11.700;2023-03-23T15:28:06;35.40;;;22.27;;
63012;SDS011;62113;45.624;11.700;2023-03-23T15:30:47;33.85;;;23.65;;
63012;SDS011;62113;45.624;11.700;2023-03-23T15:33:15;36.25;;;23.15;;
63012;SDS011;62113;45.624;11.700;2023-03-23T15:38:17;30.25;;;20.88;;
63012;SDS011;62113;45.624;11.700;2023-03-23T15:40:48;27.95;;;20.13;;
63012;SDS011;62113;45.624;11.700;2023-03-23T15:43:19;40.58;;;24.00;;
63012;SDS011;62113;45.624;11.700;2023-03-23T15:45:59;33.03;;;23.85;;
63012;SDS011;62113;45.624;11.700;2023-03-23T15:48:33;29.42;;;22.33;;
63012;SDS011;62113;45.624;11.700;2023-03-23T15:51:11;31.60;;;21.52;;
63012;SDS011;62113;45.624;11.700;2023-03-23T15:53:38;29.67;;;21.63;;
63012;SDS011;62113;45.624;11.700;2023-03-23T15:58:31;37.00;;;20.65;;
63012;SDS011;62113;45.624;11.700;2023-03-23T16:00:58;34.08;;;20.90;;
63012;SDS011;62113;45.624;11.700;2023-03-23T16:03:27;35.45;;;21.90;;
63012;SDS011;62113;45.624;11.700;2023-03-23T16:06:03;31.33;;;20.98;;
63012;SDS011;62113;45.624;11.700;2023-03-23T16:08:28;30.33;;;20.97;;
63012;SDS011;62113;45.624;11.700;2023-03-23T16:10:54;30.83;;;22.00;;
63012;SDS011;62113;45.624;11.700;2023-03-23T16:13:20;31.50;;;21.10;;
63012;SDS011;62113;45.624;11.700;2023-03-23T16:15:46;38.83;;;22.48;;
63012;SDS011;62113;45.624;11.700;2023-03-23T16:18:19;36.08;;;21.80;;
63012;SDS011;62113;45.624;11.700;2023-03-23T16:20:49;34.42;;;23.92;;
63012;SDS011;62113;45.624;11.700;2023-03-23T16:23:14;38.08;;;23.25;;
63012;SDS011;62113;45.624;11.700;2023-03-23T16:25:40;31.63;;;22.52;;
63012;SDS011;62113;45.624;11.700;2023-03-23T16:28:12;24.40;;;16.97;;
63012;SDS011;62113;45.624;11.700;2023-03-23T16:30:40;21.50;;;16.55;;
63012;SDS011;62113;45.624;11.700;2023-03-23T16:33:07;24.70;;;15.88;;
63012;SDS011;62113;45.624;11.700;2023-03-23T16:35:33;25.40;;;15.40;;
63012;SDS011;62113;45.624;11.700;2023-03-23T16:40:25;20.67;;;16.02;;
63012;SDS011;62113;45.624;11.700;2023-03-23T16:42:51;18.17;;;14.65;;
63012;SDS011;62113;45.624;11.700;2023-03-23T16:45:17;24.42;;;15.85;;
63012;SDS011;62113;45.624;11.700;2023-03-23T16:47:43;24.70;;;16.15;;